createdAt,value
2019-04-26T00:00:43.861Z,23.30
2019-04-26T00:03:18.552Z,21.17
2019-04-26T00:05:50.661Z,24.23
2019-04-26T00:08:22.749Z,20.97
2019-04-26T00:11:06.050Z,23.23
2019-04-26T00:13:55.983Z,22.43
2019-04-26T00:16:53.137Z,30.77
2019-04-26T00:19:25.540Z,24.10
2019-04-26T00:21:57.836Z,30.07
2019-04-26T00:24:30.608Z,22.43
2019-04-26T00:27:02.862Z,26.80
2019-04-26T00:29:35.089Z,24.43
2019-04-26T00:32:07.448Z,24.30
2019-04-26T00:34:39.689Z,19.97
2019-04-26T00:37:13.041Z,28.07
2019-04-26T00:39:46.673Z,25.30
2019-04-26T00:42:20.596Z,24.40
2019-04-26T00:44:53.109Z,26.17
2019-04-26T00:47:26.930Z,22.27
2019-04-26T00:49:59.935Z,26.90
2019-04-26T00:52:32.760Z,25.10
2019-04-26T00:55:05.144Z,23.87
2019-04-26T00:57:38.033Z,22.77
2019-04-26T01:00:12.618Z,25.00
2019-04-26T01:02:49.084Z,31.57
2019-04-26T01:05:21.269Z,19.77
2019-04-26T01:07:55.441Z,23.27
2019-04-26T01:10:27.518Z,19.33
2019-04-26T01:12:59.505Z,25.93
2019-04-26T01:15:32.079Z,21.97
2019-04-26T01:18:04.195Z,25.87
2019-04-26T01:20:37.023Z,30.17
2019-04-26T01:23:11.942Z,29.33
2019-04-26T01:25:49.922Z,34.47
2019-04-26T01:28:29.512Z,29.20
2019-04-26T01:31:03.668Z,22.30
2019-04-26T01:33:38.258Z,26.87
2019-04-26T01:36:13.231Z,29.23
2019-04-26T01:38:49.106Z,28.03
2019-04-26T01:41:30.898Z,30.63
2019-04-26T01:44:22.682Z,23.53
2019-04-26T01:46:55.571Z,27.07
2019-04-26T01:49:29.037Z,26.87
2019-04-26T01:52:05.559Z,26.43
2019-04-26T01:54:42.615Z,29.73
2019-04-26T01:57:16.149Z,29.70
2019-04-26T01:59:55.541Z,22.87
2019-04-26T02:02:37.449Z,28.23
2019-04-26T02:05:14.936Z,25.77
2019-04-26T02:07:47.338Z,25.20
2019-04-26T02:10:22.450Z,29.33
2019-04-26T02:12:56.394Z,27.40
2019-04-26T02:15:31.749Z,26.83
2019-04-26T02:18:04.562Z,29.27
2019-04-26T02:21:45.219Z,25.43
2019-04-26T02:24:26.432Z,26.17
2019-04-26T02:26:59.699Z,29.57
2019-04-26T02:29:32.721Z,31.67
2019-04-26T02:32:07.250Z,25.73
2019-04-26T02:34:39.790Z,27.97
2019-04-26T02:37:13.704Z,25.77
2019-04-26T02:39:46.031Z,26.53
2019-04-26T02:42:32.305Z,24.33
2019-04-26T02:45:34.734Z,26.37
2019-04-26T02:48:29.069Z,28.20
2019-04-26T02:51:06.365Z,25.70
2019-04-26T02:53:48.069Z,24.50
2019-04-26T02:56:28.225Z,26.67
2019-04-26T02:59:28.470Z,23.27
2019-04-26T03:02:04.053Z,29.33
2019-04-26T03:04:39.634Z,23.63
2019-04-26T03:07:24.827Z,23.37
2019-04-26T03:09:58.629Z,26.13
2019-04-26T03:12:34.538Z,24.37
2019-04-26T03:15:31.473Z,30.23
2019-04-26T03:18:28.687Z,23.20
2019-04-26T03:21:04.329Z,30.70
2019-04-26T03:23:59.109Z,24.67
2019-04-26T03:26:36.992Z,30.93
2019-04-26T03:29:43.800Z,23.47
2019-04-26T03:32:59.097Z,27.50
2019-04-26T03:35:59.239Z,24.30
2019-04-26T03:38:48.096Z,30.83
2019-04-26T03:42:03.675Z,24.70
2019-04-26T03:44:44.223Z,26.97
2019-04-26T03:47:21.379Z,25.67
2019-04-26T03:50:17.048Z,30.13
2019-04-26T03:53:18.850Z,31.37
2019-04-26T03:56:23.777Z,24.97
2019-04-26T03:59:28.522Z,32.70
2019-04-26T04:02:18.037Z,30.03
2019-04-26T04:04:59.787Z,28.77
2019-04-26T04:07:39.192Z,28.67
2019-04-26T04:10:16.170Z,29.00
2019-04-26T04:13:18.769Z,34.23
2019-04-26T04:15:53.563Z,23.30
2019-04-26T04:18:28.937Z,26.70
2019-04-26T04:21:53.120Z,27.50
2019-04-26T04:24:39.061Z,30.83
2019-04-26T04:27:17.050Z,29.53
2019-04-26T04:30:28.821Z,23.53
2019-04-26T04:33:40.668Z,36.90
2019-04-26T04:36:26.630Z,40.20
2019-04-26T04:39:28.738Z,38.47
2019-04-26T04:42:48.092Z,37.43
2019-04-26T04:46:15.975Z,34.03
2019-04-26T04:49:27.287Z,36.33
2019-04-26T04:52:43.212Z,29.60
2019-04-26T04:55:24.814Z,30.73
2019-04-26T04:58:11.525Z,31.87
2019-04-26T05:01:21.441Z,34.03
2019-04-26T05:04:03.387Z,27.67
2019-04-26T05:07:19.263Z,25.68
2019-04-26T05:10:04.401Z,34.65
2019-04-26T05:12:45.842Z,32.25
2019-04-26T05:16:02.698Z,33.60
2019-04-26T05:19:25.289Z,28.32
2019-04-26T05:22:28.290Z,34.50
2019-04-26T05:25:51.446Z,26.95
2019-04-26T05:29:01.242Z,31.68
2019-04-26T05:31:57.383Z,30.77
2019-04-26T05:34:58.038Z,30.88
2019-04-26T05:37:39.806Z,24.05
2019-04-26T05:40:58.618Z,29.02
2019-04-26T05:44:08.567Z,27.85
2019-04-26T05:47:33.908Z,25.92
2019-04-26T05:50:56.109Z,28.42
2019-04-26T05:54:09.857Z,25.77
2019-04-26T05:57:01.218Z,24.70
2019-04-26T05:59:45.378Z,25.72
2019-04-26T06:03:04.990Z,25.12
2019-04-26T06:05:58.576Z,28.57
2019-04-26T06:09:07.974Z,26.62
2019-04-26T06:11:49.044Z,29.40
2019-04-26T06:15:17.594Z,25.68
2019-04-26T06:18:26.916Z,23.27
2019-04-26T06:21:32.585Z,25.82
2019-04-26T06:24:30.308Z,24.27
2019-04-26T06:27:52.134Z,30.45
2019-04-26T06:31:01.928Z,27.65
2019-04-26T06:34:20.338Z,25.15
2019-04-26T06:37:14.937Z,25.57
2019-04-26T06:40:02.193Z,19.50
2019-04-26T06:42:54.847Z,19.60
2019-04-26T06:46:00.544Z,26.70
2019-04-26T06:49:33.024Z,22.50
2019-04-26T06:52:11.000Z,21.87
2019-04-26T06:55:11.211Z,22.67
2019-04-26T06:58:15.348Z,15.90
2019-04-26T07:01:17.466Z,27.23
2019-04-26T07:04:10.791Z,25.17
2019-04-26T07:07:04.600Z,22.13
2019-04-26T07:09:50.343Z,24.27
2019-04-26T07:12:39.343Z,24.97
2019-04-26T07:15:50.513Z,23.23
2019-04-26T07:19:18.292Z,33.57
2019-04-26T07:22:39.946Z,26.73
2019-04-26T07:25:36.425Z,22.60
2019-04-26T07:28:33.884Z,30.67
2019-04-26T07:31:27.581Z,25.67
2019-04-26T07:34:29.522Z,29.67
2019-04-26T07:37:28.618Z,24.87
2019-04-26T07:40:40.586Z,24.40
2019-04-26T07:43:33.447Z,21.93
2019-04-26T07:46:28.636Z,31.50
2019-04-26T07:49:53.148Z,25.88
2019-04-26T07:53:21.045Z,20.60
2019-04-26T07:56:26.647Z,22.47
2019-04-26T07:59:54.571Z,24.80
2019-04-26T08:02:52.951Z,24.43
2019-04-26T08:05:48.751Z,28.93
2019-04-26T08:08:23.874Z,38.90
2019-04-26T08:11:06.274Z,17.60
2019-04-26T08:13:44.128Z,30.90
2019-04-26T08:16:35.933Z,20.87
2019-04-26T08:19:14.707Z,31.50
2019-04-26T08:21:49.779Z,51.48
2019-04-26T08:24:28.207Z,28.77
2019-04-26T08:27:13.391Z,28.23
2019-04-26T08:29:44.111Z,24.70
2019-04-26T08:32:22.969Z,24.12
2019-04-26T08:35:16.114Z,17.95
2019-04-26T08:37:51.646Z,21.33
2019-04-26T08:40:30.923Z,16.85
2019-04-26T08:43:37.623Z,21.35
2019-04-26T08:46:36.327Z,17.73
2019-04-26T08:49:27.570Z,32.08
2019-04-26T08:52:13.687Z,15.63
2019-04-26T08:54:43.064Z,17.75
2019-04-26T08:57:17.507Z,26.05
2019-04-26T08:59:54.474Z,15.43
2019-04-26T09:02:54.046Z,17.05
2019-04-26T09:05:54.913Z,20.00
2019-04-26T09:08:30.102Z,19.23
2019-04-26T09:11:04.602Z,18.25
2019-04-26T09:13:40.293Z,18.45
2019-04-26T09:16:18.104Z,20.12
2019-04-26T09:18:53.731Z,19.48
2019-04-26T09:21:41.019Z,24.70
2019-04-26T09:24:24.953Z,24.10
2019-04-26T09:27:08.614Z,19.48
2019-04-26T09:30:14.556Z,17.98
2019-04-26T09:32:51.880Z,20.15
2019-04-26T09:35:23.769Z,17.27
2019-04-26T09:37:55.530Z,20.88
2019-04-26T09:40:27.335Z,18.23
2019-04-26T09:43:17.110Z,24.00
2019-04-26T09:46:07.827Z,18.20
2019-04-26T09:48:45.226Z,20.10
2019-04-26T09:51:17.939Z,16.57
2019-04-26T09:53:49.995Z,17.48
2019-04-26T09:56:21.810Z,17.27
2019-04-26T09:58:54.450Z,14.68
2019-04-26T10:01:27.282Z,13.85
2019-04-26T10:03:59.316Z,17.45
2019-04-26T10:06:31.369Z,16.55
2019-04-26T10:09:03.817Z,16.82
2019-04-26T10:11:43.612Z,15.23
2019-04-26T10:14:21.622Z,18.65
2019-04-26T10:17:15.758Z,14.60
2019-04-26T10:19:50.322Z,20.85
2019-04-26T10:22:23.590Z,16.67
2019-04-26T10:24:55.401Z,15.30
2019-04-26T10:27:27.588Z,12.07
2019-04-26T10:30:07.872Z,14.90
2019-04-26T10:32:33.178Z,13.55
2019-04-26T10:35:05.517Z,14.87
2019-04-26T10:37:39.539Z,13.23
2019-04-26T10:40:12.291Z,13.47
2019-04-26T10:42:44.561Z,17.10
2019-04-26T10:45:17.074Z,23.57
2019-04-26T10:47:49.050Z,15.00
2019-04-26T10:50:22.342Z,9.30
2019-04-26T10:53:16.344Z,14.95
2019-04-26T10:56:05.616Z,14.70
2019-04-26T10:58:42.151Z,11.57
2019-04-26T11:01:16.076Z,9.78
2019-04-26T11:03:48.268Z,14.35
2019-04-26T11:06:23.987Z,13.55
2019-04-26T11:08:54.218Z,13.90
2019-04-26T11:11:26.460Z,15.55
2019-04-26T11:13:58.667Z,12.03
2019-04-26T11:16:31.085Z,12.25
2019-04-26T11:19:03.067Z,16.82
2019-04-26T11:21:35.059Z,14.98
2019-04-26T11:24:07.137Z,13.38
2019-04-26T11:26:39.191Z,11.28
2019-04-26T11:29:11.581Z,14.43
2019-04-26T11:31:43.886Z,21.48
2019-04-26T11:34:15.600Z,16.03
2019-04-26T11:36:47.631Z,19.90
2019-04-26T11:39:19.744Z,15.08
2019-04-26T11:41:52.162Z,11.43
2019-04-26T11:44:27.541Z,12.60
2019-04-26T11:46:59.321Z,14.30
2019-04-26T11:49:31.831Z,18.87
2019-04-26T11:52:04.904Z,17.15
2019-04-26T11:54:37.253Z,13.75
2019-04-26T11:57:11.995Z,17.67
2019-04-26T11:59:43.271Z,15.30
2019-04-26T12:02:16.093Z,13.43
2019-04-26T12:04:59.620Z,20.02
2019-04-26T12:07:38.559Z,11.03
2019-04-26T12:10:11.435Z,12.30
2019-04-26T12:12:47.121Z,12.60
2019-04-26T12:15:29.652Z,10.48
2019-04-26T12:17:58.376Z,10.53
2019-04-26T12:20:26.957Z,11.93
2019-04-26T12:22:59.762Z,15.27
2019-04-26T12:25:31.638Z,14.13
2019-04-26T12:28:06.008Z,8.30
2019-04-26T12:30:37.518Z,11.37
2019-04-26T12:33:43.694Z,14.83
2019-04-26T12:36:14.321Z,11.33
2019-04-26T12:38:46.450Z,14.27
2019-04-26T12:41:25.226Z,11.80
2019-04-26T12:43:54.425Z,13.77
2019-04-26T12:46:37.481Z,11.10
2019-04-26T12:49:10.564Z,12.00
2019-04-26T12:51:47.332Z,17.02
2019-04-26T12:54:16.795Z,16.05
2019-04-26T12:56:48.637Z,13.97
2019-04-26T12:59:22.453Z,15.20
2019-04-26T13:02:05.422Z,14.93
2019-04-26T13:04:35.952Z,9.97
2019-04-26T13:07:22.690Z,17.48
2019-04-26T13:09:49.101Z,13.27
2019-04-26T13:12:33.128Z,13.68
2019-04-26T13:16:08.087Z,14.07
2019-04-26T13:18:41.126Z,20.25
2019-04-26T13:21:14.039Z,17.45
2019-04-26T13:23:48.132Z,17.13
2019-04-26T13:26:19.445Z,16.10
2019-04-26T13:28:52.534Z,11.93
2019-04-26T13:31:31.404Z,11.23
2019-04-26T13:34:02.741Z,16.57
2019-04-26T13:36:33.234Z,18.57
2019-04-26T13:39:09.346Z,16.07
2019-04-26T13:41:42.618Z,13.30
2019-04-26T13:44:16.283Z,14.33
2019-04-26T13:47:10.089Z,16.48
2019-04-26T13:49:59.814Z,18.87
2019-04-26T13:52:31.783Z,19.63
2019-04-26T13:55:03.759Z,14.25
2019-04-26T13:57:35.801Z,17.27
2019-04-26T14:00:11.621Z,18.03
2019-04-26T14:02:44.583Z,14.90
2019-04-26T14:05:16.968Z,15.13
2019-04-26T14:07:49.113Z,18.73
2019-04-26T14:10:21.231Z,12.20
2019-04-26T14:12:53.756Z,18.37
2019-04-26T14:15:26.731Z,16.50
2019-04-26T14:18:00.391Z,17.13
2019-04-26T14:20:32.813Z,13.13
2019-04-26T14:23:24.496Z,15.70
2019-04-26T14:26:07.002Z,15.60
2019-04-26T14:28:41.903Z,15.63
2019-04-26T14:31:16.343Z,19.47
2019-04-26T14:33:46.334Z,16.13
2019-04-26T14:36:18.597Z,17.83
2019-04-26T14:39:05.018Z,18.50
2019-04-26T14:41:25.708Z,16.47
2019-04-26T14:43:57.880Z,19.17
2019-04-26T14:46:29.655Z,18.33
2019-04-26T14:49:05.487Z,17.40
2019-04-26T14:51:35.599Z,13.30
2019-04-26T14:54:11.347Z,21.87
2019-04-26T14:56:51.664Z,17.73
2019-04-26T14:59:16.382Z,17.30
2019-04-26T15:02:06.426Z,23.80
2019-04-26T15:04:54.284Z,20.43
2019-04-26T15:07:28.272Z,16.33
2019-04-26T15:09:59.934Z,13.93
2019-04-26T15:12:32.464Z,15.60
2019-04-26T15:15:04.992Z,13.23
2019-04-26T15:17:38.665Z,18.43
2019-04-26T15:20:12.623Z,16.17
2019-04-26T15:22:48.560Z,14.03
2019-04-26T15:25:20.627Z,21.20
2019-04-26T15:27:52.668Z,15.60
2019-04-26T15:30:24.575Z,20.53
2019-04-26T15:32:56.687Z,21.80
2019-04-26T15:35:32.665Z,18.93
2019-04-26T15:38:03.768Z,19.77
2019-04-26T15:41:05.583Z,21.70
2019-04-26T15:43:56.574Z,20.03
2019-04-26T15:46:48.593Z,19.17
2019-04-26T15:49:38.799Z,14.70
2019-04-26T15:52:11.154Z,19.50
2019-04-26T15:54:43.374Z,18.53
2019-04-26T15:57:15.363Z,15.37
2019-04-26T15:59:47.407Z,23.47
2019-04-26T16:02:24.638Z,22.27
2019-04-26T16:04:54.428Z,19.27
2019-04-26T16:07:29.407Z,19.30
2019-04-26T16:10:01.234Z,16.27
2019-04-26T16:12:33.362Z,19.63
2019-04-26T16:15:06.555Z,17.87
2019-04-26T16:17:40.118Z,17.03
2019-04-26T16:20:13.740Z,16.07
2019-04-26T16:22:48.915Z,22.50
2019-04-26T16:25:19.838Z,18.03
2019-04-26T16:28:12.565Z,17.33
2019-04-26T16:30:56.580Z,18.60
2019-04-26T16:33:33.494Z,16.67
2019-04-26T16:36:06.332Z,22.60
2019-04-26T16:38:40.777Z,23.57
2019-04-26T16:41:12.789Z,21.43
2019-04-26T16:43:52.688Z,19.70
2019-04-26T16:46:20.354Z,13.70
2019-04-26T16:48:56.722Z,19.37
2019-04-26T16:51:25.275Z,16.10
2019-04-26T16:54:07.005Z,19.27
2019-04-26T16:56:30.896Z,19.57
2019-04-26T16:59:03.949Z,20.93
2019-04-26T17:01:38.142Z,23.03
2019-04-26T17:06:44.768Z,15.10
2019-04-26T17:09:17.471Z,19.90
2019-04-26T17:09:51.021Z,16.17
2019-04-26T17:11:49.563Z,19.90
2019-04-26T17:14:24.431Z,27.13
2019-04-26T17:16:55.900Z,27.43
2019-04-26T17:19:29.756Z,17.53
2019-04-26T17:22:20.326Z,14.87
2019-04-26T17:25:00.174Z,24.47
2019-04-26T17:27:33.078Z,18.80
2019-04-26T17:30:07.324Z,25.30
2019-04-26T17:32:39.519Z,20.03
2019-04-26T17:35:11.433Z,25.03
2019-04-26T17:37:43.317Z,23.33
2019-04-26T17:40:15.356Z,17.20
2019-04-26T17:42:47.217Z,19.90
2019-04-26T17:45:19.059Z,17.60
2019-04-26T17:47:52.836Z,14.57
2019-04-26T17:50:24.704Z,20.13
2019-04-26T17:52:56.518Z,24.93
2019-04-26T17:55:31.824Z,25.67
2019-04-26T17:58:12.012Z,21.57
2019-04-26T18:00:46.129Z,28.23
2019-04-26T18:03:14.998Z,30.90
2019-04-26T18:05:56.717Z,19.33
2019-04-26T18:08:35.838Z,20.43
2019-04-26T18:10:54.079Z,28.33
2019-04-26T18:13:26.187Z,21.63
2019-04-26T18:15:57.998Z,22.73
2019-04-26T18:18:53.992Z,16.73
2019-04-26T18:21:43.709Z,16.40
2019-04-26T18:24:16.010Z,22.73
2019-04-26T18:26:54.029Z,17.93
2019-04-26T18:29:23.733Z,25.17
2019-04-26T18:31:55.182Z,19.03
2019-04-26T18:34:30.530Z,15.33
2019-04-26T18:37:01.949Z,20.53
2019-04-26T18:39:34.074Z,20.93
2019-04-26T18:42:06.145Z,19.73
2019-04-26T18:44:43.316Z,27.37
2019-04-26T18:47:27.936Z,16.20
2019-04-26T18:49:59.386Z,17.33
2019-04-26T18:52:33.178Z,25.07
2019-04-26T18:55:30.165Z,15.53
2019-04-26T18:58:03.435Z,27.40
2019-04-26T19:00:37.368Z,26.50
2019-04-26T19:03:09.242Z,22.30
2019-04-26T19:05:43.101Z,17.53
2019-04-26T19:08:15.244Z,17.67
2019-04-26T19:10:58.225Z,21.70
2019-04-26T19:13:38.580Z,21.03
2019-04-26T19:16:46.392Z,21.70
2019-04-26T19:19:32.066Z,20.23
2019-04-26T19:22:04.993Z,25.33
2019-04-26T19:24:38.624Z,28.10
2019-04-26T19:27:12.351Z,34.23
2019-04-26T19:29:45.712Z,25.13
2019-04-26T19:32:17.826Z,25.30
2019-04-26T19:34:49.935Z,24.40
2019-04-26T19:37:23.352Z,20.33
2019-04-26T19:39:55.638Z,26.53
2019-04-26T19:42:30.954Z,25.17
2019-04-26T19:45:11.669Z,26.23
2019-04-26T19:47:59.698Z,23.23
2019-04-26T19:50:50.477Z,21.63
2019-04-26T19:53:36.530Z,24.47
2019-04-26T19:56:13.111Z,20.10
2019-04-26T19:58:45.979Z,19.80
2019-04-26T20:01:20.965Z,24.37
2019-04-26T20:03:55.141Z,23.03
2019-04-26T20:06:26.817Z,14.30
2019-04-26T20:08:59.314Z,16.93
2019-04-26T20:11:31.665Z,27.70
2019-04-26T20:14:03.740Z,32.37
2019-04-26T20:16:36.472Z,35.70
2019-04-26T20:19:15.123Z,29.87
2019-04-26T20:21:45.356Z,32.33
2019-04-26T20:24:18.283Z,27.63
2019-04-26T20:26:50.374Z,31.17
2019-04-26T20:29:23.186Z,29.70
2019-04-26T20:32:07.350Z,25.27
2019-04-26T20:34:40.908Z,25.33
2019-04-26T20:37:16.225Z,22.43
2019-04-26T20:39:46.830Z,24.37
2019-04-26T20:42:18.933Z,21.13
2019-04-26T20:44:53.164Z,43.17
2019-04-26T20:47:24.318Z,21.57
2019-04-26T20:50:01.251Z,26.00
2019-04-26T20:52:29.892Z,29.10
2019-04-26T20:55:01.676Z,31.50
2019-04-26T20:57:35.375Z,28.73
2019-04-26T21:00:08.139Z,23.10
2019-04-26T21:02:41.554Z,31.10
2019-04-26T21:05:15.015Z,29.83
2019-04-26T21:07:49.814Z,30.30
2019-04-26T21:10:25.354Z,20.60
2019-04-26T21:12:55.097Z,30.67
2019-04-26T21:15:27.672Z,29.90
2019-04-26T21:18:01.351Z,29.03
2019-04-26T21:20:36.339Z,29.37
2019-04-26T21:23:06.922Z,29.23
2019-04-26T21:25:57.584Z,30.30
2019-04-26T21:28:48.516Z,28.63
2019-04-26T21:31:45.451Z,31.73
2019-04-26T21:34:36.317Z,31.27
2019-04-26T21:37:26.115Z,27.60
2019-04-26T21:40:22.651Z,31.77
2019-04-26T21:42:55.346Z,29.27
2019-04-26T21:45:28.217Z,33.40
2019-04-26T21:47:57.437Z,45.37
2019-04-26T21:50:35.816Z,40.93
2019-04-26T21:53:06.901Z,27.37
2019-04-26T21:55:38.656Z,28.73
2019-04-26T21:58:11.093Z,33.13
2019-04-26T22:01:05.062Z,30.70
2019-04-26T22:03:37.367Z,29.23
2019-04-26T22:06:10.390Z,28.70
2019-04-26T22:09:05.124Z,25.17
2019-04-26T22:11:38.749Z,23.57
2019-04-26T22:14:21.598Z,30.40
2019-04-26T22:17:13.733Z,25.03
2019-04-26T22:20:16.224Z,26.90
2019-04-26T22:23:16.308Z,29.17
2019-04-26T22:25:49.628Z,30.97
2019-04-26T22:28:23.460Z,23.17
2019-04-26T22:30:59.336Z,29.67
2019-04-26T22:33:32.657Z,33.10
2019-04-26T22:36:05.500Z,34.77
2019-04-26T22:38:37.805Z,31.97
2019-04-26T22:41:10.123Z,30.53
2019-04-26T22:43:55.261Z,28.13
2019-04-26T22:46:58.854Z,26.43
2019-04-26T22:49:34.928Z,20.33
2019-04-26T22:52:06.333Z,24.70
2019-04-26T22:54:44.693Z,36.37
2019-04-26T22:57:15.998Z,31.27
2019-04-26T22:59:50.112Z,27.97
2019-04-26T23:02:25.414Z,29.87
2019-04-26T23:04:55.970Z,29.93
2019-04-26T23:07:27.829Z,26.23
2019-04-26T23:09:59.792Z,32.30
2019-04-26T23:13:07.915Z,26.87
2019-04-26T23:16:00.550Z,22.90
2019-04-26T23:18:53.840Z,27.97
2019-04-26T23:21:30.019Z,32.73
2019-04-26T23:24:03.608Z,26.27
2019-04-26T23:26:37.488Z,32.93
2019-04-26T23:29:15.679Z,29.77
2019-04-26T23:31:44.639Z,28.13
2019-04-26T23:34:16.765Z,24.90
2019-04-26T23:36:50.142Z,27.27
2019-04-26T23:39:25.440Z,29.23
2019-04-26T23:41:58.014Z,31.07
2019-04-26T23:44:30.231Z,25.17
2019-04-26T23:47:12.527Z,34.50
2019-04-26T23:49:36.449Z,29.30
2019-04-26T23:52:08.861Z,26.80
2019-04-26T23:54:41.222Z,29.40
2019-04-26T23:57:13.874Z,29.87
2019-04-26T23:59:46.078Z,32.60
